createdAt,value
2023-01-17T00:02:25.132Z,52.70
2023-01-17T00:05:11.054Z,52.60
2023-01-17T00:07:57.123Z,52.40
2023-01-17T00:10:27.868Z,52.50
2023-01-17T00:12:58.738Z,52.50
2023-01-17T00:15:29.811Z,52.50
2023-01-17T00:17:58.116Z,52.50
2023-01-17T00:20:49.545Z,52.40
2023-01-17T00:23:40.091Z,52.50
2023-01-17T00:26:14.671Z,52.40
2023-01-17T00:28:43.838Z,52.40
2023-01-17T00:31:14.118Z,52.40
2023-01-17T00:33:41.847Z,52.40
2023-01-17T00:36:10.355Z,52.40
2023-01-17T00:38:39.983Z,52.40
2023-01-17T00:41:13.885Z,52.30
2023-01-17T00:44:00.643Z,52.40
2023-01-17T00:46:46.681Z,52.30
2023-01-17T00:49:33.234Z,52.30
2023-01-17T00:52:20.073Z,52.40
2023-01-17T00:55:05.935Z,52.30
2023-01-17T00:57:52.129Z,52.30
2023-01-17T01:00:38.653Z,52.30
2023-01-17T01:03:29.821Z,52.30
2023-01-17T01:06:16.058Z,52.30
2023-01-17T01:09:02.154Z,52.20
2023-01-17T01:11:48.430Z,52.20
2023-01-17T01:14:34.828Z,52.20
2023-01-17T01:17:21.216Z,52.20
2023-01-17T01:20:10.323Z,52.20
2023-01-17T01:22:56.161Z,52.20
2023-01-17T01:25:42.625Z,52.20
2023-01-17T01:28:33.495Z,52.20
2023-01-17T01:31:21.850Z,52.20
2023-01-17T01:33:51.978Z,52.10
2023-01-17T01:36:19.488Z,52.20
2023-01-17T01:38:46.943Z,52.20
2023-01-17T01:41:14.660Z,52.20
2023-01-17T01:43:54.602Z,52.10
2023-01-17T01:46:39.456Z,52.10
2023-01-17T01:49:18.850Z,52.20
2023-01-17T01:51:53.453Z,52.10
2023-01-17T01:54:58.681Z,52.10
2023-01-17T01:57:32.789Z,52.10
2023-01-17T02:00:08.516Z,52.10
2023-01-17T02:02:39.903Z,52.00
2023-01-17T02:05:08.481Z,52.00
2023-01-17T02:07:46.481Z,52.00
2023-01-17T02:10:14.008Z,51.90
2023-01-17T02:12:42.549Z,52.00
2023-01-17T02:15:10.778Z,51.80
2023-01-17T02:18:21.077Z,51.70
2023-01-17T02:20:58.912Z,51.70
2023-01-17T02:24:07.993Z,51.70
2023-01-17T02:26:50.777Z,51.60
2023-01-17T02:29:45.906Z,51.50
2023-01-17T02:32:28.253Z,51.50
2023-01-17T02:35:23.897Z,51.40
2023-01-17T02:37:59.039Z,51.30
2023-01-17T02:41:09.221Z,51.30
2023-01-17T02:44:17.631Z,51.30
2023-01-17T02:46:57.426Z,51.40
2023-01-17T02:49:30.941Z,51.30
2023-01-17T02:52:35.775Z,51.30
2023-01-17T02:55:26.771Z,51.30
2023-01-17T02:58:16.217Z,51.30
2023-01-17T03:01:09.637Z,51.30
2023-01-17T03:04:15.464Z,51.30
2023-01-17T03:06:56.541Z,51.20
2023-01-17T03:09:25.946Z,51.20
2023-01-17T03:11:53.762Z,51.70
2023-01-17T03:14:21.424Z,51.00
2023-01-17T03:16:48.966Z,51.00
2023-01-17T03:19:16.733Z,51.00
2023-01-17T03:21:44.337Z,51.00
2023-01-17T03:24:11.851Z,50.90
2023-01-17T03:26:39.299Z,50.90
2023-01-17T03:29:06.564Z,50.90
2023-01-17T03:31:33.955Z,50.80
2023-01-17T03:34:01.527Z,50.80
2023-01-17T03:36:29.024Z,50.90
2023-01-17T03:38:56.427Z,50.80
2023-01-17T03:41:23.847Z,50.90
2023-01-17T03:43:51.272Z,50.80
2023-01-17T03:46:26.080Z,50.70
2023-01-17T03:48:53.570Z,50.80
2023-01-17T03:51:21.689Z,50.80
2023-01-17T03:53:50.213Z,50.70
2023-01-17T03:56:18.238Z,50.80
2023-01-17T03:58:45.929Z,50.80
2023-01-17T04:01:13.784Z,50.70
2023-01-17T04:03:41.547Z,50.70
2023-01-17T04:06:09.025Z,50.70
2023-01-17T04:08:36.593Z,50.70
2023-01-17T04:11:04.537Z,50.60
2023-01-17T04:13:32.088Z,50.60
2023-01-17T04:15:59.786Z,50.60
2023-01-17T04:18:27.405Z,50.60
2023-01-17T04:20:54.723Z,50.50
2023-01-17T04:23:22.293Z,50.50
2023-01-17T04:25:49.845Z,50.50
2023-01-17T04:28:17.311Z,50.40
2023-01-17T04:30:44.995Z,50.50
2023-01-17T04:33:12.674Z,50.40
2023-01-17T04:35:40.303Z,50.40
2023-01-17T04:38:26.220Z,50.40
2023-01-17T04:40:53.717Z,50.40
2023-01-17T04:43:21.238Z,50.40
2023-01-17T04:45:48.746Z,50.50
2023-01-17T04:48:16.125Z,50.40
2023-01-17T04:50:43.470Z,50.50
2023-01-17T04:53:10.941Z,50.40
2023-01-17T04:55:38.344Z,50.40
2023-01-17T04:58:05.872Z,50.40
2023-01-17T05:00:33.237Z,50.50
2023-01-17T05:03:00.938Z,50.40
2023-01-17T05:05:28.545Z,50.40
2023-01-17T05:07:57.393Z,50.40
2023-01-17T05:10:26.010Z,50.40
2023-01-17T05:12:58.965Z,50.40
2023-01-17T05:15:27.435Z,50.40
2023-01-17T05:17:55.756Z,50.40
2023-01-17T05:20:25.807Z,50.50
2023-01-17T05:22:55.681Z,50.40
2023-01-17T05:25:25.541Z,50.50
2023-01-17T05:27:53.492Z,50.50
2023-01-17T05:30:22.371Z,50.50
2023-01-17T05:32:51.699Z,50.50
2023-01-17T05:35:22.998Z,50.60
2023-01-17T05:37:51.859Z,50.60
2023-01-17T05:40:22.244Z,50.60
2023-01-17T05:42:52.967Z,50.60
2023-01-17T05:45:22.490Z,50.60
2023-01-17T05:47:53.213Z,50.60
2023-01-17T05:50:27.776Z,50.90
2023-01-17T05:53:05.399Z,51.00
2023-01-17T05:55:34.062Z,51.10
2023-01-17T05:58:02.415Z,51.40
2023-01-17T06:00:31.372Z,51.80
2023-01-17T06:03:00.996Z,52.00
2023-01-17T06:05:29.958Z,52.00
2023-01-17T06:08:00.029Z,52.20
2023-01-17T06:10:29.239Z,52.10
2023-01-17T06:13:20.999Z,52.40
2023-01-17T06:15:48.935Z,52.50
2023-01-17T06:18:18.053Z,52.70
2023-01-17T06:20:45.983Z,52.60
2023-01-17T06:23:15.102Z,52.60
2023-01-17T06:25:46.049Z,52.60
2023-01-17T06:28:19.990Z,52.80
2023-01-17T06:30:47.915Z,52.70
2023-01-17T06:33:18.669Z,52.80
2023-01-17T06:35:51.483Z,52.80
2023-01-17T06:38:19.656Z,52.60
2023-01-17T06:40:47.284Z,52.50
2023-01-17T06:43:14.846Z,52.60
2023-01-17T06:45:42.488Z,52.50
2023-01-17T06:48:10.176Z,52.50
2023-01-17T06:50:38.233Z,52.50
2023-01-17T06:53:07.791Z,52.50
2023-01-17T06:55:39.679Z,52.40
2023-01-17T06:58:08.702Z,52.40
2023-01-17T07:00:38.275Z,52.40
2023-01-17T07:03:17.842Z,52.40
2023-01-17T07:05:45.505Z,52.40
2023-01-17T07:08:13.839Z,52.40
2023-01-17T07:10:41.738Z,52.40
2023-01-17T07:13:09.651Z,52.50
2023-01-17T07:15:37.277Z,52.50
2023-01-17T07:18:04.990Z,52.40
2023-01-17T07:20:33.206Z,52.50
2023-01-17T07:23:00.759Z,52.50
2023-01-17T07:25:28.242Z,52.50
2023-01-17T07:27:57.839Z,52.50
2023-01-17T07:30:27.185Z,52.60
2023-01-17T07:32:55.520Z,53.20
2023-01-17T07:35:26.902Z,52.70
2023-01-17T07:37:55.233Z,52.60
2023-01-17T07:40:23.114Z,52.70
2023-01-17T07:42:50.684Z,52.70
2023-01-17T07:45:18.229Z,52.70
2023-01-17T07:47:45.799Z,52.80
2023-01-17T07:50:13.991Z,52.70
2023-01-17T07:52:41.923Z,52.80
2023-01-17T07:55:10.354Z,52.80
2023-01-17T07:57:38.162Z,52.80
2023-01-17T08:00:06.483Z,52.80
2023-01-17T08:02:39.718Z,52.80
2023-01-17T08:05:07.681Z,52.80
2023-01-17T08:07:35.231Z,52.80
2023-01-17T08:10:05.817Z,52.80
2023-01-17T08:12:34.401Z,52.80
2023-01-17T08:15:01.970Z,52.80
2023-01-17T08:17:29.410Z,52.80
2023-01-17T08:19:56.957Z,52.80
2023-01-17T08:22:24.840Z,52.80
2023-01-17T08:24:52.273Z,52.70
2023-01-17T08:27:20.201Z,52.70
2023-01-17T08:29:48.719Z,52.80
2023-01-17T08:32:16.755Z,52.80
2023-01-17T08:34:44.290Z,52.90
2023-01-17T08:37:11.857Z,52.80
2023-01-17T08:39:39.636Z,52.80
2023-01-17T08:42:07.375Z,52.90
2023-01-17T08:44:35.029Z,52.80
2023-01-17T08:47:02.522Z,52.80
2023-01-17T08:49:29.917Z,52.90
2023-01-17T08:51:57.771Z,52.90
2023-01-17T08:54:25.192Z,52.90
2023-01-17T08:56:53.233Z,53.00
2023-01-17T08:59:21.048Z,52.80
2023-01-17T09:01:48.609Z,52.80
2023-01-17T09:04:16.517Z,52.90
2023-01-17T09:06:46.460Z,52.90
2023-01-17T09:09:15.898Z,52.90
2023-01-17T09:11:43.791Z,52.90
2023-01-17T09:14:13.628Z,52.90
2023-01-17T09:16:41.095Z,52.90
2023-01-17T09:19:10.026Z,52.90
2023-01-17T09:21:37.686Z,52.80
2023-01-17T09:24:05.699Z,52.90
2023-01-17T09:26:33.409Z,52.80
2023-01-17T09:29:01.074Z,52.90
2023-01-17T09:31:29.081Z,52.80
2023-01-17T09:33:58.115Z,52.80
2023-01-17T09:36:29.251Z,52.80
2023-01-17T09:38:58.868Z,52.80
2023-01-17T09:42:02.425Z,52.90
2023-01-17T09:44:52.785Z,52.80
2023-01-17T09:47:53.134Z,52.90
2023-01-17T09:50:33.754Z,52.80
2023-01-17T09:53:28.700Z,52.80
2023-01-17T09:56:12.814Z,52.80
2023-01-17T09:59:18.561Z,52.70
2023-01-17T10:01:46.302Z,52.80
2023-01-17T10:04:56.479Z,52.60
2023-01-17T10:08:00.642Z,52.50
2023-01-17T10:10:44.006Z,52.50
2023-01-17T10:13:14.266Z,52.50
2023-01-17T10:15:57.931Z,52.50
2023-01-17T10:19:31.528Z,52.60
2023-01-17T10:23:13.079Z,52.50
2023-01-17T10:25:52.744Z,52.50
2023-01-17T10:28:51.491Z,52.40
2023-01-17T10:31:28.250Z,52.50
2023-01-17T10:34:11.952Z,52.50
2023-01-17T10:36:48.950Z,52.50
2023-01-17T10:39:25.332Z,52.50
2023-01-17T10:42:02.610Z,52.40
2023-01-17T10:44:52.456Z,52.50
2023-01-17T10:47:24.852Z,52.40
2023-01-17T10:49:54.654Z,52.50
2023-01-17T10:53:04.560Z,52.30
2023-01-17T10:55:56.308Z,52.30
2023-01-17T10:58:25.525Z,52.30
2023-01-17T11:01:12.454Z,52.20
2023-01-17T11:03:40.329Z,52.20
2023-01-17T11:06:26.245Z,52.10
2023-01-17T11:08:59.831Z,52.00
2023-01-17T11:11:35.831Z,52.10
2023-01-17T11:14:20.243Z,52.00
2023-01-17T11:17:01.523Z,51.90
2023-01-17T11:19:36.482Z,51.90
2023-01-17T11:22:07.127Z,51.90
2023-01-17T11:24:41.900Z,51.90
2023-01-17T11:27:29.472Z,51.80
2023-01-17T11:30:26.413Z,51.70
2023-01-17T11:33:07.282Z,51.70
2023-01-17T11:35:45.801Z,51.70
2023-01-17T11:38:22.012Z,51.70
2023-01-17T11:40:50.799Z,51.70
2023-01-17T11:43:25.108Z,51.70
2023-01-17T11:46:20.714Z,51.60
2023-01-17T11:48:59.760Z,51.70
2023-01-17T11:51:42.402Z,51.70
2023-01-17T11:54:39.646Z,51.70
2023-01-17T11:57:25.500Z,51.70
2023-01-17T12:00:31.284Z,51.80
2023-01-17T12:03:15.553Z,51.80
2023-01-17T12:05:53.743Z,51.80
2023-01-17T12:08:51.646Z,51.70
2023-01-17T12:12:30.449Z,51.80
2023-01-17T12:15:03.048Z,51.80
2023-01-17T12:18:11.396Z,51.90
2023-01-17T12:21:30.474Z,51.90
2023-01-17T12:24:55.883Z,52.00
2023-01-17T12:28:00.116Z,51.80
2023-01-17T12:30:58.825Z,51.80
2023-01-17T12:33:47.930Z,51.80
2023-01-17T12:36:40.023Z,51.70
2023-01-17T12:39:12.117Z,51.60
2023-01-17T12:42:00.089Z,51.40
2023-01-17T12:44:45.702Z,51.30
2023-01-17T12:47:16.957Z,51.30
2023-01-17T12:50:12.132Z,51.20
2023-01-17T12:52:48.779Z,51.20
2023-01-17T12:56:12.903Z,51.20
2023-01-17T12:58:45.632Z,51.20
2023-01-17T13:01:57.858Z,51.20
2023-01-17T13:04:58.832Z,51.30
2023-01-17T13:07:33.330Z,51.20
2023-01-17T13:10:35.565Z,51.20
2023-01-17T13:13:22.549Z,51.30
2023-01-17T13:15:57.467Z,51.30
2023-01-17T13:18:29.932Z,51.50
2023-01-17T13:21:30.177Z,51.60
2023-01-17T13:24:03.715Z,51.70
2023-01-17T13:26:55.732Z,51.60
2023-01-17T13:30:32.716Z,51.60
2023-01-17T13:33:47.355Z,51.70
2023-01-17T13:36:42.513Z,51.70
2023-01-17T13:39:12.557Z,51.70
2023-01-17T13:41:45.782Z,51.60
2023-01-17T13:44:24.817Z,51.70
2023-01-17T13:47:27.797Z,51.70
2023-01-17T13:49:58.569Z,51.70
2023-01-17T13:52:28.375Z,51.80
2023-01-17T13:55:01.327Z,51.80
2023-01-17T13:57:42.196Z,51.80
2023-01-17T14:00:24.430Z,51.80
2023-01-17T14:02:55.438Z,51.80
2023-01-17T14:05:31.828Z,51.90
2023-01-17T14:08:02.491Z,51.90
2023-01-17T14:11:09.783Z,51.90
2023-01-17T14:13:40.736Z,51.90
2023-01-17T14:16:29.371Z,52.00
2023-01-17T14:18:57.223Z,51.90
2023-01-17T14:21:35.693Z,52.00
2023-01-17T14:24:17.572Z,52.00
2023-01-17T14:27:12.649Z,52.10
2023-01-17T14:29:49.781Z,52.00
2023-01-17T14:32:22.461Z,52.20
2023-01-17T14:34:52.507Z,52.20
2023-01-17T14:37:47.883Z,52.20
2023-01-17T14:40:26.608Z,52.20
2023-01-17T14:43:17.816Z,52.20
2023-01-17T14:45:45.434Z,52.20
2023-01-17T14:48:19.287Z,52.20
2023-01-17T14:50:49.649Z,52.30
2023-01-17T14:53:23.199Z,52.20
2023-01-17T14:55:57.820Z,52.20
2023-01-17T14:58:32.022Z,52.30
2023-01-17T15:01:12.948Z,52.30
2023-01-17T15:03:57.440Z,52.30
2023-01-17T15:06:42.018Z,52.30
2023-01-17T15:09:20.159Z,52.40
2023-01-17T15:11:50.279Z,52.30
2023-01-17T15:14:28.131Z,52.40
2023-01-17T15:16:55.855Z,52.40
2023-01-17T15:19:23.519Z,52.40
2023-01-17T15:21:54.140Z,53.00
2023-01-17T15:24:29.635Z,52.40
2023-01-17T15:26:57.183Z,52.50
2023-01-17T15:29:32.497Z,52.50
2023-01-17T15:32:03.238Z,52.40
2023-01-17T15:34:45.715Z,52.60
2023-01-17T15:37:35.979Z,52.80
2023-01-17T15:40:06.355Z,52.70
2023-01-17T15:42:36.766Z,52.60
2023-01-17T15:45:09.654Z,52.60
2023-01-17T15:47:39.303Z,52.70
2023-01-17T15:50:31.264Z,52.70
2023-01-17T15:53:04.998Z,52.70
2023-01-17T15:55:40.188Z,52.70
2023-01-17T15:58:27.930Z,52.80
2023-01-17T16:00:56.411Z,52.90
2023-01-17T16:03:29.476Z,52.90
2023-01-17T16:06:00.447Z,52.90
2023-01-17T16:08:40.051Z,52.90
2023-01-17T16:11:11.881Z,53.00
2023-01-17T16:13:44.569Z,53.00
2023-01-17T16:16:14.675Z,53.10
2023-01-17T16:18:46.652Z,53.00
2023-01-17T16:21:27.499Z,53.00
2023-01-17T16:23:55.599Z,53.00
2023-01-17T16:26:24.207Z,53.00
2023-01-17T16:28:52.214Z,53.00
2023-01-17T16:31:19.978Z,53.00
2023-01-17T16:33:50.785Z,53.10
2023-01-17T16:36:19.770Z,52.90
2023-01-17T16:38:51.455Z,53.00
2023-01-17T16:41:25.589Z,53.00
2023-01-17T16:44:05.654Z,52.90
2023-01-17T16:46:35.105Z,52.90
2023-01-17T16:49:02.948Z,52.90
2023-01-17T16:51:31.525Z,52.90
2023-01-17T16:53:59.795Z,52.90
2023-01-17T16:56:27.566Z,52.90
2023-01-17T16:58:55.023Z,53.00
2023-01-17T17:01:23.105Z,53.00
2023-01-17T17:03:51.112Z,53.00
2023-01-17T17:06:18.663Z,53.00
2023-01-17T17:08:46.252Z,53.00
2023-01-17T17:11:24.267Z,53.00
2023-01-17T17:13:52.834Z,53.00
2023-01-17T17:16:26.666Z,53.10
2023-01-17T17:19:06.407Z,53.00
2023-01-17T17:21:37.030Z,53.10
2023-01-17T17:24:05.313Z,53.10
2023-01-17T17:26:36.274Z,53.10
2023-01-17T17:29:05.339Z,53.10
2023-01-17T17:31:33.371Z,53.10
2023-01-17T17:34:02.952Z,53.10
2023-01-17T17:36:31.014Z,53.10
2023-01-17T17:38:58.821Z,53.10
2023-01-17T17:41:29.878Z,53.10
2023-01-17T17:43:57.807Z,53.10
2023-01-17T17:46:27.494Z,53.10
2023-01-17T17:48:56.094Z,53.10
2023-01-17T17:51:37.938Z,53.20
2023-01-17T17:54:09.789Z,53.10
2023-01-17T17:56:38.825Z,53.10
2023-01-17T17:59:09.397Z,53.10
2023-01-17T18:01:41.207Z,53.10
2023-01-17T18:04:09.597Z,53.00
2023-01-17T18:06:38.673Z,52.90
2023-01-17T18:09:08.731Z,52.90
2023-01-17T18:11:38.443Z,52.80
2023-01-17T18:14:11.605Z,52.70
2023-01-17T18:16:43.309Z,52.70
2023-01-17T18:19:18.457Z,52.70
2023-01-17T18:21:46.190Z,52.60
2023-01-17T18:24:16.869Z,52.60
2023-01-17T18:26:59.231Z,52.60
2023-01-17T18:29:27.828Z,52.60
2023-01-17T18:31:56.229Z,52.50
2023-01-17T18:34:29.482Z,52.50
2023-01-17T18:36:58.442Z,52.50
2023-01-17T18:39:29.398Z,52.40
2023-01-17T18:41:57.699Z,52.40
2023-01-17T18:44:25.447Z,52.40
2023-01-17T18:46:59.608Z,52.30
2023-01-17T18:49:27.242Z,52.30
2023-01-17T18:51:54.687Z,52.10
2023-01-17T18:54:22.493Z,52.10
2023-01-17T18:56:51.247Z,52.20
2023-01-17T18:59:18.944Z,52.10
2023-01-17T19:01:46.887Z,52.10
2023-01-17T19:04:16.413Z,52.00
2023-01-17T19:06:47.682Z,52.00
2023-01-17T19:09:17.167Z,52.10
2023-01-17T19:11:46.386Z,52.10
2023-01-17T19:14:14.603Z,52.10
2023-01-17T19:16:43.233Z,52.10
2023-01-17T19:19:14.952Z,52.10
2023-01-17T19:21:42.941Z,52.10
2023-01-17T19:24:13.362Z,52.10
2023-01-17T19:26:41.960Z,52.00
2023-01-17T19:29:09.500Z,52.00
2023-01-17T19:31:48.511Z,52.00
2023-01-17T19:34:19.063Z,52.00
2023-01-17T19:36:47.390Z,51.90
2023-01-17T19:39:14.920Z,51.80
2023-01-17T19:41:45.634Z,51.90
2023-01-17T19:44:15.321Z,51.70
2023-01-17T19:46:44.196Z,51.60
2023-01-17T19:49:16.468Z,51.60
2023-01-17T19:51:46.849Z,51.50
2023-01-17T19:54:15.851Z,51.60
2023-01-17T19:56:43.571Z,51.50
2023-01-17T19:59:14.083Z,51.50
2023-01-17T20:01:41.862Z,51.50
2023-01-17T20:04:09.942Z,52.00
2023-01-17T20:06:37.488Z,51.30
2023-01-17T20:09:07.035Z,51.40
2023-01-17T20:11:34.788Z,51.40
2023-01-17T20:14:05.793Z,51.30
2023-01-17T20:16:37.792Z,51.30
2023-01-17T20:19:05.772Z,51.20
2023-01-17T20:21:33.144Z,51.20
2023-01-17T20:24:03.521Z,51.20
2023-01-17T20:26:35.194Z,51.00
2023-01-17T20:29:15.091Z,51.10
2023-01-17T20:31:44.888Z,51.00
2023-01-17T20:34:14.697Z,51.00
2023-01-17T20:36:42.829Z,51.00
2023-01-17T20:39:13.865Z,50.90
2023-01-17T20:41:43.886Z,50.90
2023-01-17T20:44:15.615Z,50.90
2023-01-17T20:46:44.131Z,50.80
2023-01-17T20:49:15.811Z,50.80
2023-01-17T20:51:44.605Z,50.70
2023-01-17T20:54:18.563Z,50.70
2023-01-17T20:56:47.702Z,50.70
2023-01-17T20:59:22.461Z,50.80
2023-01-17T21:01:50.958Z,50.90
2023-01-17T21:04:24.972Z,51.00
2023-01-17T21:06:53.476Z,51.00
2023-01-17T21:09:23.599Z,51.00
2023-01-17T21:11:51.988Z,51.10
2023-01-17T21:14:19.507Z,51.10
2023-01-17T21:16:46.893Z,51.20
2023-01-17T21:19:15.334Z,51.20
2023-01-17T21:21:42.950Z,51.20
2023-01-17T21:24:16.381Z,51.30
2023-01-17T21:26:45.645Z,51.90
2023-01-17T21:29:16.205Z,51.30
2023-01-17T21:31:46.970Z,51.20
2023-01-17T21:34:14.344Z,51.30
2023-01-17T21:36:46.302Z,51.30
2023-01-17T21:39:18.155Z,51.30
2023-01-17T21:41:49.659Z,51.20
2023-01-17T21:44:23.124Z,51.10
2023-01-17T21:46:56.388Z,50.90
2023-01-17T21:49:24.318Z,50.70
2023-01-17T21:51:54.641Z,50.40
2023-01-17T21:54:46.482Z,50.50
2023-01-17T21:57:38.210Z,50.50
2023-01-17T22:00:14.757Z,50.50
2023-01-17T22:02:47.775Z,50.60
2023-01-17T22:05:19.489Z,50.70
2023-01-17T22:08:05.595Z,50.70
2023-01-17T22:10:44.786Z,50.80
2023-01-17T22:13:18.304Z,50.80
2023-01-17T22:15:46.218Z,50.90
2023-01-17T22:18:15.537Z,51.00
2023-01-17T22:20:43.621Z,51.10
2023-01-17T22:23:12.018Z,51.00
2023-01-17T22:25:39.496Z,51.00
2023-01-17T22:28:06.846Z,51.00
2023-01-17T22:30:34.631Z,51.00
2023-01-17T22:33:02.076Z,51.00
2023-01-17T22:35:29.490Z,51.00
2023-01-17T22:37:56.807Z,50.90
2023-01-17T22:40:24.521Z,51.00
2023-01-17T22:42:52.156Z,51.00
2023-01-17T22:45:20.371Z,51.00
2023-01-17T22:47:48.022Z,51.00
2023-01-17T22:50:15.543Z,51.10
2023-01-17T22:52:43.013Z,50.90
2023-01-17T22:55:12.376Z,51.00
2023-01-17T22:57:40.033Z,51.00
2023-01-17T23:00:14.719Z,51.00
2023-01-17T23:02:42.919Z,51.00
2023-01-17T23:05:11.005Z,51.00
2023-01-17T23:07:44.943Z,51.00
2023-01-17T23:10:34.524Z,51.00
2023-01-17T23:13:01.961Z,51.00
2023-01-17T23:15:47.850Z,51.00
2023-01-17T23:18:33.974Z,50.90
2023-01-17T23:21:01.615Z,50.90
2023-01-17T23:23:29.195Z,50.80
2023-01-17T23:26:01.409Z,50.80
2023-01-17T23:28:28.985Z,50.70
2023-01-17T23:31:03.295Z,50.70
2023-01-17T23:33:30.700Z,50.70
2023-01-17T23:35:58.286Z,50.60
2023-01-17T23:38:34.155Z,50.50
2023-01-17T23:41:26.274Z,50.50
2023-01-17T23:43:56.575Z,50.50
2023-01-17T23:46:26.785Z,50.40
2023-01-17T23:48:55.338Z,50.40
2023-01-17T23:51:23.177Z,50.30
2023-01-17T23:53:55.387Z,50.20
2023-01-17T23:56:24.957Z,50.30
2023-01-17T23:58:52.380Z,50.20
